createdAt,value
2022-11-24T00:02:31.525Z,32.22
2022-11-24T00:05:38.380Z,32.90
2022-11-24T00:08:41.879Z,30.53
2022-11-24T00:11:43.537Z,28.92
2022-11-24T00:14:46.990Z,27.88
2022-11-24T00:17:48.571Z,34.45
2022-11-24T00:20:53.066Z,30.90
2022-11-24T00:23:55.043Z,29.33
2022-11-24T00:26:56.580Z,32.58
2022-11-24T00:29:59.501Z,36.70
2022-11-24T00:33:03.429Z,34.92
2022-11-24T00:36:05.421Z,31.03
2022-11-24T00:39:14.806Z,32.63
2022-11-24T00:42:17.032Z,30.60
2022-11-24T00:45:18.629Z,34.72
2022-11-24T00:48:20.310Z,33.58
2022-11-24T00:51:24.909Z,34.00
2022-11-24T00:54:26.452Z,36.07
2022-11-24T00:57:27.995Z,34.88
2022-11-24T01:00:29.681Z,35.70
2022-11-24T01:03:31.606Z,33.63
2022-11-24T01:06:35.226Z,30.73
2022-11-24T01:09:37.766Z,26.70
2022-11-24T01:12:39.698Z,28.80
2022-11-24T01:15:41.411Z,31.50
2022-11-24T01:18:43.197Z,28.25
2022-11-24T01:21:45.025Z,27.00
2022-11-24T01:24:46.669Z,28.37
2022-11-24T01:27:48.234Z,28.92
2022-11-24T01:31:05.240Z,32.63
2022-11-24T01:34:07.162Z,26.73
2022-11-24T01:37:08.782Z,25.53
2022-11-24T01:40:10.995Z,22.03
2022-11-24T01:43:21.394Z,24.25
2022-11-24T01:46:45.158Z,25.00
2022-11-24T01:49:50.857Z,26.67
2022-11-24T01:52:55.419Z,28.43
2022-11-24T01:55:58.030Z,25.23
2022-11-24T01:59:01.739Z,25.13
2022-11-24T02:02:03.869Z,22.30
2022-11-24T02:05:15.745Z,26.63
2022-11-24T02:08:42.436Z,26.37
2022-11-24T02:11:44.674Z,29.03
2022-11-24T02:14:46.371Z,27.30
2022-11-24T02:17:48.014Z,25.80
2022-11-24T02:20:49.641Z,27.55
2022-11-24T02:24:13.296Z,30.17
2022-11-24T02:27:14.912Z,26.37
2022-11-24T02:30:17.625Z,26.65
2022-11-24T02:33:20.816Z,24.80
2022-11-24T02:36:22.417Z,22.88
2022-11-24T02:39:24.127Z,24.17
2022-11-24T02:42:28.387Z,23.27
2022-11-24T02:45:31.367Z,22.65
2022-11-24T02:48:32.993Z,20.38
2022-11-24T02:51:34.704Z,21.77
2022-11-24T02:54:36.702Z,22.23
2022-11-24T02:57:38.610Z,23.93
2022-11-24T03:00:41.350Z,19.45
2022-11-24T03:03:43.526Z,20.88
2022-11-24T03:06:45.113Z,20.88
2022-11-24T03:09:47.095Z,21.93
2022-11-24T03:12:48.682Z,19.90
2022-11-24T03:15:50.268Z,25.02
2022-11-24T03:18:52.975Z,23.13
2022-11-24T03:21:54.558Z,22.85
2022-11-24T03:24:56.124Z,22.37
2022-11-24T03:27:58.283Z,22.40
2022-11-24T03:30:59.956Z,25.20
2022-11-24T03:34:01.621Z,26.02
2022-11-24T03:37:03.240Z,23.90
2022-11-24T03:40:05.341Z,22.50
2022-11-24T03:43:06.931Z,25.93
2022-11-24T03:46:08.674Z,25.95
2022-11-24T03:49:10.547Z,24.85
2022-11-24T03:52:12.365Z,27.45
2022-11-24T03:55:14.002Z,22.30
2022-11-24T03:58:15.644Z,20.43
2022-11-24T04:01:17.279Z,24.45
2022-11-24T04:04:19.574Z,20.15
2022-11-24T04:07:21.296Z,20.15
2022-11-24T04:10:26.296Z,19.13
2022-11-24T04:13:28.504Z,20.20
2022-11-24T04:16:30.146Z,16.63
2022-11-24T04:19:31.716Z,17.35
2022-11-24T04:22:33.499Z,16.10
2022-11-24T04:25:35.784Z,17.10
2022-11-24T04:28:38.515Z,15.43
2022-11-24T04:31:40.105Z,16.95
2022-11-24T04:34:41.736Z,14.55
2022-11-24T04:37:43.331Z,17.35
2022-11-24T04:40:44.974Z,15.30
2022-11-24T04:43:49.373Z,16.67
2022-11-24T04:46:51.053Z,14.75
2022-11-24T04:49:53.589Z,13.93
2022-11-24T04:52:55.164Z,16.30
2022-11-24T04:55:56.721Z,14.57
2022-11-24T04:58:58.375Z,15.23
2022-11-24T05:01:59.966Z,15.38
2022-11-24T05:05:01.670Z,19.92
2022-11-24T05:08:03.482Z,19.88
2022-11-24T05:11:06.773Z,19.20
2022-11-24T05:14:08.423Z,22.83
2022-11-24T05:17:09.998Z,27.70
2022-11-24T05:20:11.663Z,30.88
2022-11-24T05:23:13.314Z,29.30
2022-11-24T05:26:14.881Z,24.10
2022-11-24T05:29:16.517Z,31.37
2022-11-24T05:32:18.131Z,32.95
2022-11-24T05:35:19.765Z,35.42
2022-11-24T05:38:22.918Z,40.90
2022-11-24T05:41:24.491Z,43.53
2022-11-24T05:44:26.074Z,41.97
2022-11-24T05:47:27.729Z,39.08
2022-11-24T05:50:29.398Z,41.88
2022-11-24T05:53:31.030Z,49.42
2022-11-24T05:56:32.623Z,54.67
2022-11-24T05:59:34.546Z,59.50
2022-11-24T06:02:36.252Z,60.17
2022-11-24T06:05:38.249Z,56.10
2022-11-24T06:08:39.898Z,53.72
2022-11-24T06:11:41.691Z,59.93
2022-11-24T06:14:43.378Z,59.47
2022-11-24T06:17:52.285Z,53.80
2022-11-24T06:21:09.784Z,54.97
2022-11-24T06:24:12.796Z,54.38
2022-11-24T06:27:14.591Z,50.53
2022-11-24T06:30:18.263Z,55.03
2022-11-24T06:33:20.474Z,51.40
2022-11-24T06:36:22.390Z,56.85
2022-11-24T06:39:24.191Z,55.17
2022-11-24T06:42:25.771Z,54.27
2022-11-24T06:45:30.493Z,53.30
2022-11-24T06:48:33.913Z,58.15
2022-11-24T06:51:35.685Z,50.08
2022-11-24T06:54:37.528Z,52.65
2022-11-24T06:57:39.214Z,51.13
2022-11-24T07:00:40.918Z,48.13
2022-11-24T07:03:42.742Z,51.47
2022-11-24T07:06:45.002Z,53.42
2022-11-24T07:09:46.846Z,52.33
2022-11-24T07:12:48.810Z,58.33
2022-11-24T07:15:50.897Z,51.60
2022-11-24T07:18:54.054Z,55.88
2022-11-24T07:21:55.806Z,54.85
2022-11-24T07:24:57.438Z,54.88
2022-11-24T07:27:59.896Z,54.00
2022-11-24T07:31:09.077Z,54.67
2022-11-24T07:34:10.984Z,49.80
2022-11-24T07:37:12.541Z,50.30
2022-11-24T07:40:14.764Z,51.78
2022-11-24T07:43:20.184Z,56.63
2022-11-24T07:46:22.210Z,55.07
2022-11-24T07:49:24.123Z,56.67
2022-11-24T07:52:26.868Z,52.38
2022-11-24T07:55:28.554Z,57.03
2022-11-24T07:58:33.114Z,57.40
2022-11-24T08:01:35.186Z,52.00
2022-11-24T08:04:37.230Z,56.58
2022-11-24T08:07:39.352Z,56.38
2022-11-24T08:10:41.012Z,51.53
2022-11-24T08:13:43.245Z,58.53
2022-11-24T08:16:44.862Z,53.87
2022-11-24T08:19:46.505Z,55.25
2022-11-24T08:22:48.166Z,54.38
2022-11-24T08:25:54.154Z,59.92
2022-11-24T08:28:59.505Z,56.93
2022-11-24T08:32:01.127Z,57.33
2022-11-24T08:35:13.868Z,64.68
2022-11-24T08:38:17.325Z,56.10
2022-11-24T08:41:19.053Z,59.03
2022-11-24T08:44:20.672Z,55.20
2022-11-24T08:47:22.862Z,55.97
2022-11-24T08:50:26.374Z,57.28
2022-11-24T08:53:28.362Z,52.83
2022-11-24T08:56:32.545Z,55.45
2022-11-24T08:59:34.323Z,54.47
2022-11-24T09:02:36.137Z,54.47
2022-11-24T09:05:53.703Z,48.25
2022-11-24T09:08:55.726Z,54.47
2022-11-24T09:11:57.411Z,50.72
2022-11-24T09:14:59.139Z,51.70
2022-11-24T09:18:00.729Z,52.77
2022-11-24T09:21:09.572Z,46.85
2022-11-24T09:24:11.397Z,46.30
2022-11-24T09:27:13.017Z,47.10
2022-11-24T09:30:16.034Z,47.17
2022-11-24T09:33:17.755Z,46.03
2022-11-24T09:36:20.419Z,48.28
2022-11-24T09:39:22.079Z,43.00
2022-11-24T09:42:35.846Z,45.60
2022-11-24T09:46:05.389Z,48.37
2022-11-24T09:49:14.100Z,47.63
2022-11-24T09:52:29.134Z,39.80
2022-11-24T09:55:55.184Z,52.58
2022-11-24T09:59:17.799Z,53.35
2022-11-24T10:02:19.486Z,46.57
2022-11-24T10:05:26.036Z,43.97
2022-11-24T10:08:39.882Z,41.33
2022-11-24T10:11:52.205Z,36.95
2022-11-24T10:15:05.867Z,41.40
2022-11-24T10:18:31.394Z,49.90
2022-11-24T10:22:07.201Z,42.43
2022-11-24T10:25:17.085Z,39.20
2022-11-24T10:28:19.151Z,43.05
2022-11-24T10:31:35.264Z,37.00
2022-11-24T10:34:41.595Z,42.77
2022-11-24T10:38:21.688Z,43.33
2022-11-24T10:41:42.752Z,40.67
2022-11-24T10:44:44.449Z,49.20
2022-11-24T10:47:46.854Z,42.83
2022-11-24T10:50:48.607Z,40.07
2022-11-24T10:53:55.228Z,41.07
2022-11-24T10:56:56.795Z,42.50
2022-11-24T10:59:59.260Z,41.78
2022-11-24T11:03:17.548Z,40.88
2022-11-24T11:06:30.201Z,42.87
2022-11-24T11:09:31.909Z,43.07
2022-11-24T11:12:44.084Z,37.20
2022-11-24T11:15:46.411Z,43.25
2022-11-24T11:18:49.357Z,47.88
2022-11-24T11:22:19.950Z,55.63
2022-11-24T11:25:30.958Z,46.27
2022-11-24T11:28:32.703Z,43.47
2022-11-24T11:31:35.673Z,44.45
2022-11-24T11:34:37.770Z,45.10
2022-11-24T11:37:40.363Z,43.50
2022-11-24T11:40:43.776Z,42.00
2022-11-24T11:43:47.013Z,43.88
2022-11-24T11:46:48.757Z,46.47
2022-11-24T11:49:50.841Z,50.47
2022-11-24T11:53:23.403Z,44.87
2022-11-24T11:56:30.388Z,41.80
2022-11-24T11:59:41.849Z,41.80
2022-11-24T12:03:11.428Z,39.38
2022-11-24T12:06:34.251Z,39.47
2022-11-24T12:10:03.038Z,39.47
2022-11-24T12:13:33.728Z,38.80
2022-11-24T12:16:45.542Z,39.15
2022-11-24T12:20:02.270Z,38.72
2022-11-24T12:23:31.202Z,38.53
2022-11-24T12:26:53.104Z,41.10
2022-11-24T12:30:12.645Z,46.37
2022-11-24T12:33:34.166Z,39.72
2022-11-24T12:36:41.269Z,43.10
2022-11-24T12:39:56.983Z,38.95
2022-11-24T12:43:20.102Z,38.17
2022-11-24T12:46:47.135Z,30.47
2022-11-24T12:50:07.216Z,33.00
2022-11-24T12:53:15.982Z,36.53
2022-11-24T12:56:23.379Z,31.83
2022-11-24T12:59:54.311Z,32.37
2022-11-24T13:03:12.370Z,32.53
2022-11-24T13:06:27.378Z,29.60
2022-11-24T13:09:29.011Z,32.25
2022-11-24T13:12:30.753Z,34.17
2022-11-24T13:16:07.095Z,32.67
2022-11-24T13:19:19.631Z,24.10
2022-11-24T13:22:25.668Z,24.45
2022-11-24T13:25:35.075Z,28.13
2022-11-24T13:29:13.386Z,27.08
2022-11-24T13:32:31.968Z,25.43
2022-11-24T13:35:33.579Z,24.47
2022-11-24T13:39:02.393Z,24.88
2022-11-24T13:42:04.110Z,26.45
2022-11-24T13:45:45.052Z,23.67
2022-11-24T13:48:46.983Z,25.13
2022-11-24T13:51:48.539Z,25.73
2022-11-24T13:54:50.461Z,23.85
2022-11-24T13:57:56.872Z,25.75
2022-11-24T14:01:12.052Z,31.15
2022-11-24T14:04:32.507Z,29.07
2022-11-24T14:07:34.732Z,34.17
2022-11-24T14:10:37.973Z,25.08
2022-11-24T14:13:39.578Z,22.60
2022-11-24T14:16:41.142Z,26.27
2022-11-24T14:19:44.742Z,19.83
2022-11-24T14:22:46.427Z,22.77
2022-11-24T14:25:52.656Z,21.70
2022-11-24T14:29:03.708Z,25.65
2022-11-24T14:32:16.333Z,22.25
2022-11-24T14:35:29.989Z,24.23
2022-11-24T14:38:32.051Z,22.33
2022-11-24T14:41:33.916Z,24.10
2022-11-24T14:44:47.954Z,21.05
2022-11-24T14:47:49.874Z,32.63
2022-11-24T14:50:51.974Z,27.53
2022-11-24T14:54:01.048Z,20.47
2022-11-24T14:57:05.277Z,23.70
2022-11-24T15:00:15.338Z,22.75
2022-11-24T15:03:19.786Z,23.35
2022-11-24T15:06:21.464Z,18.20
2022-11-24T15:09:32.847Z,19.97
2022-11-24T15:12:39.405Z,23.75
2022-11-24T15:15:49.254Z,23.00
2022-11-24T15:19:03.310Z,19.48
2022-11-24T15:22:36.111Z,20.30
2022-11-24T15:25:37.755Z,19.07
2022-11-24T15:28:40.103Z,19.05
2022-11-24T15:31:45.245Z,14.63
2022-11-24T15:34:49.385Z,28.20
2022-11-24T15:37:52.364Z,19.27
2022-11-24T15:40:57.680Z,18.23
2022-11-24T15:43:59.403Z,16.02
2022-11-24T15:47:01.056Z,15.43
2022-11-24T15:50:02.811Z,21.63
2022-11-24T15:53:05.662Z,17.20
2022-11-24T15:56:13.371Z,18.07
2022-11-24T15:59:20.249Z,20.23
2022-11-24T16:02:22.675Z,17.60
2022-11-24T16:05:24.312Z,17.50
2022-11-24T16:08:26.067Z,42.20
2022-11-24T16:11:27.717Z,21.27
2022-11-24T16:14:30.024Z,18.88
2022-11-24T16:17:31.636Z,22.13
2022-11-24T16:20:35.967Z,21.33
2022-11-24T16:23:38.129Z,21.03
2022-11-24T16:26:39.779Z,21.13
2022-11-24T16:29:41.454Z,16.73
2022-11-24T16:32:43.321Z,15.88
2022-11-24T16:35:48.501Z,16.77
2022-11-24T16:38:50.463Z,16.33
2022-11-24T16:41:52.294Z,15.83
2022-11-24T16:44:54.145Z,13.95
2022-11-24T16:47:55.922Z,13.32
2022-11-24T16:51:05.690Z,16.50
2022-11-24T16:54:08.963Z,15.17
2022-11-24T16:57:14.957Z,15.03
2022-11-24T17:00:17.491Z,19.80
2022-11-24T17:03:19.122Z,18.67
2022-11-24T17:06:21.131Z,17.52
2022-11-24T17:09:23.193Z,17.13
2022-11-24T17:12:24.841Z,23.10
2022-11-24T17:15:33.604Z,18.63
2022-11-24T17:18:36.783Z,16.00
2022-11-24T17:21:38.737Z,19.55
2022-11-24T17:24:40.338Z,20.30
2022-11-24T17:27:41.932Z,16.67
2022-11-24T17:30:43.556Z,15.23
2022-11-24T17:33:45.230Z,17.58
2022-11-24T17:36:47.109Z,14.48
2022-11-24T17:40:05.999Z,23.17
2022-11-24T17:43:11.644Z,20.57
2022-11-24T17:46:13.362Z,21.33
2022-11-24T17:49:15.157Z,25.08
2022-11-24T17:52:18.154Z,22.80
2022-11-24T17:55:19.939Z,21.93
2022-11-24T17:58:22.154Z,23.00
2022-11-24T18:01:24.363Z,23.48
2022-11-24T18:04:26.304Z,15.30
2022-11-24T18:07:28.032Z,16.42
2022-11-24T18:10:31.901Z,19.13
2022-11-24T18:13:55.625Z,39.50
2022-11-24T18:16:55.728Z,26.15
2022-11-24T18:19:57.549Z,18.15
2022-11-24T18:23:05.968Z,20.20
2022-11-24T18:26:10.330Z,21.40
2022-11-24T18:29:12.278Z,17.93
2022-11-24T18:32:14.156Z,17.15
2022-11-24T18:35:16.254Z,15.02
2022-11-24T18:38:18.294Z,15.18
2022-11-24T18:41:21.071Z,13.53
2022-11-24T18:44:22.649Z,13.87
2022-11-24T18:47:24.540Z,16.63
2022-11-24T18:50:26.555Z,19.75
2022-11-24T18:53:28.918Z,29.33
2022-11-24T18:56:30.901Z,21.47
2022-11-24T18:59:32.986Z,23.73
2022-11-24T19:02:34.894Z,26.27
2022-11-24T19:05:36.795Z,26.98
2022-11-24T19:08:38.842Z,22.70
2022-11-24T19:11:43.448Z,21.87
2022-11-24T19:14:45.337Z,22.93
2022-11-24T19:17:47.525Z,26.20
2022-11-24T19:20:49.702Z,31.35
2022-11-24T19:23:51.691Z,32.22
2022-11-24T19:26:54.420Z,20.43
2022-11-24T19:29:56.388Z,24.13
2022-11-24T19:32:58.343Z,24.95
2022-11-24T19:36:09.081Z,21.17
2022-11-24T19:39:15.494Z,22.73
2022-11-24T19:42:18.299Z,22.83
2022-11-24T19:45:20.178Z,21.27
2022-11-24T19:48:22.033Z,26.02
2022-11-24T19:51:35.545Z,25.77
2022-11-24T19:54:37.670Z,26.02
2022-11-24T19:57:40.226Z,21.23
2022-11-24T20:00:41.933Z,18.50
2022-11-24T20:03:45.441Z,20.65
2022-11-24T20:06:48.112Z,17.05
2022-11-24T20:09:49.978Z,17.52
2022-11-24T20:12:51.497Z,21.83
2022-11-24T20:15:53.393Z,18.70
2022-11-24T20:19:00.401Z,20.80
2022-11-24T20:22:02.399Z,17.30
2022-11-24T20:25:04.447Z,17.73
2022-11-24T20:28:06.465Z,18.67
2022-11-24T20:31:14.900Z,21.03
2022-11-24T20:34:17.145Z,22.30
2022-11-24T20:37:18.917Z,20.27
2022-11-24T20:40:20.863Z,17.73
2022-11-24T20:43:22.698Z,17.63
2022-11-24T20:46:27.369Z,15.13
2022-11-24T20:49:29.779Z,18.05
2022-11-24T20:52:31.665Z,16.58
2022-11-24T20:55:34.467Z,20.45
2022-11-24T20:58:37.463Z,18.93
2022-11-24T21:01:42.800Z,20.50
2022-11-24T21:04:44.715Z,19.70
2022-11-24T21:07:46.694Z,21.80
2022-11-24T21:10:56.013Z,21.23
2022-11-24T21:13:58.102Z,23.03
2022-11-24T21:16:59.918Z,21.43
2022-11-24T21:20:01.706Z,21.77
2022-11-24T21:23:04.998Z,21.13
2022-11-24T21:26:12.988Z,24.00
2022-11-24T21:29:22.261Z,23.50
2022-11-24T21:32:25.086Z,25.47
2022-11-24T21:35:26.690Z,24.13
2022-11-24T21:38:28.278Z,24.45
2022-11-24T21:41:32.785Z,25.30
2022-11-24T21:44:35.018Z,25.10
2022-11-24T21:47:37.625Z,22.47
2022-11-24T21:50:39.242Z,22.33
2022-11-24T21:53:41.586Z,33.58
2022-11-24T21:56:43.219Z,25.25
2022-11-24T21:59:45.064Z,24.93
2022-11-24T22:02:47.339Z,24.27
2022-11-24T22:05:56.414Z,25.23
2022-11-24T22:08:57.982Z,26.42
2022-11-24T22:12:00.610Z,27.02
2022-11-24T22:15:02.236Z,28.80
2022-11-24T22:18:05.077Z,24.97
2022-11-24T22:21:10.260Z,22.55
2022-11-24T22:24:11.965Z,22.58
2022-11-24T22:27:13.543Z,23.88
2022-11-24T22:30:15.380Z,19.83
2022-11-24T22:33:16.976Z,23.37
2022-11-24T22:36:22.638Z,24.58
2022-11-24T22:39:24.241Z,22.58
2022-11-24T22:42:25.869Z,24.77
2022-11-24T22:45:27.457Z,25.47
2022-11-24T22:48:29.087Z,24.47
2022-11-24T22:51:33.032Z,24.38
2022-11-24T22:54:34.940Z,25.05
2022-11-24T22:57:36.717Z,24.50
2022-11-24T23:00:38.874Z,25.60
2022-11-24T23:03:40.907Z,24.00
2022-11-24T23:06:43.038Z,26.30
2022-11-24T23:09:44.845Z,24.83
2022-11-24T23:12:46.430Z,24.40
2022-11-24T23:15:47.969Z,28.87
2022-11-24T23:18:53.730Z,27.27
2022-11-24T23:21:55.701Z,25.33
2022-11-24T23:24:57.301Z,29.65
2022-11-24T23:27:58.912Z,25.30
2022-11-24T23:31:04.982Z,26.83
2022-11-24T23:34:06.732Z,30.77
2022-11-24T23:37:08.409Z,29.23
2022-11-24T23:40:10.341Z,29.10
2022-11-24T23:43:11.887Z,28.67
2022-11-24T23:46:20.257Z,27.20
2022-11-24T23:49:21.850Z,30.97
2022-11-24T23:52:23.472Z,29.13
2022-11-24T23:55:25.057Z,30.77
2022-11-24T23:58:26.751Z,28.95
